sensor_id;sensor_type;location;lat;lon;timestamp;P1;durP1;ratioP1;P2;durP2;ratioP2
47635;SDS011;33364;50.766;15.338;2023-02-08T00:00:20;19.38;;;8.88;;
47635;SDS011;33364;50.766;15.338;2023-02-08T00:03:09;26.55;;;8.88;;
47635;SDS011;33364;50.766;15.338;2023-02-08T00:05:34;26.25;;;10.80;;
47635;SDS011;33364;50.766;15.338;2023-02-08T00:08:01;19.08;;;8.00;;
47635;SDS011;33364;50.766;15.338;2023-02-08T00:10:26;37.15;;;13.77;;
47635;SDS011;33364;50.766;15.338;2023-02-08T00:12:52;40.28;;;13.38;;
47635;SDS011;33364;50.766;15.338;2023-02-08T00:15:18;31.80;;;12.52;;
47635;SDS011;33364;50.766;15.338;2023-02-08T00:17:44;23.83;;;10.07;;
47635;SDS011;33364;50.766;15.338;2023-02-08T00:20:10;17.58;;;8.88;;
47635;SDS011;33364;50.766;15.338;2023-02-08T00:22:36;17.10;;;7.68;;
47635;SDS011;33364;50.766;15.338;2023-02-08T00:25:03;17.80;;;7.97;;
47635;SDS011;33364;50.766;15.338;2023-02-08T00:27:30;22.58;;;8.98;;
47635;SDS011;33364;50.766;15.338;2023-02-08T00:29:55;22.73;;;10.50;;
47635;SDS011;33364;50.766;15.338;2023-02-08T00:32:21;24.42;;;10.93;;
47635;SDS011;33364;50.766;15.338;2023-02-08T00:34:47;21.05;;;9.77;;
47635;SDS011;33364;50.766;15.338;2023-02-08T00:37:13;28.33;;;10.70;;
47635;SDS011;33364;50.766;15.338;2023-02-08T00:39:38;23.70;;;9.80;;
47635;SDS011;33364;50.766;15.338;2023-02-08T00:42:04;22.08;;;9.73;;
47635;SDS011;33364;50.766;15.338;2023-02-08T00:44:30;19.92;;;9.07;;
47635;SDS011;33364;50.766;15.338;2023-02-08T00:46:56;22.02;;;10.82;;
47635;SDS011;33364;50.766;15.338;2023-02-08T00:49:21;18.52;;;7.93;;
47635;SDS011;33364;50.766;15.338;2023-02-08T00:51:47;18.67;;;8.45;;
47635;SDS011;33364;50.766;15.338;2023-02-08T00:54:13;26.30;;;11.20;;
47635;SDS011;33364;50.766;15.338;2023-02-08T00:56:41;22.75;;;10.20;;
47635;SDS011;33364;50.766;15.338;2023-02-08T00:59:07;23.15;;;10.50;;
47635;SDS011;33364;50.766;15.338;2023-02-08T01:01:33;22.02;;;9.68;;
47635;SDS011;33364;50.766;15.338;2023-02-08T01:03:58;26.55;;;11.00;;
47635;SDS011;33364;50.766;15.338;2023-02-08T01:06:24;23.90;;;10.27;;
47635;SDS011;33364;50.766;15.338;2023-02-08T01:08:50;23.77;;;9.90;;
47635;SDS011;33364;50.766;15.338;2023-02-08T01:11:17;21.55;;;10.48;;
47635;SDS011;33364;50.766;15.338;2023-02-08T01:13:46;26.67;;;10.68;;
47635;SDS011;33364;50.766;15.338;2023-02-08T01:16:17;21.17;;;9.63;;
47635;SDS011;33364;50.766;15.338;2023-02-08T01:18:47;28.02;;;9.45;;
47635;SDS011;33364;50.766;15.338;2023-02-08T01:21:15;26.35;;;10.65;;
47635;SDS011;33364;50.766;15.338;2023-02-08T01:23:43;22.17;;;9.50;;
47635;SDS011;33364;50.766;15.338;2023-02-08T01:26:10;32.38;;;12.43;;
47635;SDS011;33364;50.766;15.338;2023-02-08T01:28:37;27.90;;;10.73;;
47635;SDS011;33364;50.766;15.338;2023-02-08T01:31:08;19.42;;;8.75;;
47635;SDS011;33364;50.766;15.338;2023-02-08T01:33:36;23.83;;;9.15;;
47635;SDS011;33364;50.766;15.338;2023-02-08T01:36:02;19.23;;;9.18;;
47635;SDS011;33364;50.766;15.338;2023-02-08T01:38:28;19.92;;;8.07;;
47635;SDS011;33364;50.766;15.338;2023-02-08T01:40:55;21.10;;;10.35;;
47635;SDS011;33364;50.766;15.338;2023-02-08T01:43:23;23.55;;;10.02;;
47635;SDS011;33364;50.766;15.338;2023-02-08T01:45:51;26.52;;;11.20;;
47635;SDS011;33364;50.766;15.338;2023-02-08T01:50:56;23.67;;;9.77;;
47635;SDS011;33364;50.766;15.338;2023-02-08T01:53:27;22.67;;;9.63;;
47635;SDS011;33364;50.766;15.338;2023-02-08T01:55:55;21.85;;;10.20;;
47635;SDS011;33364;50.766;15.338;2023-02-08T01:58:23;22.15;;;9.90;;
47635;SDS011;33364;50.766;15.338;2023-02-08T02:00:52;21.73;;;9.73;;
47635;SDS011;33364;50.766;15.338;2023-02-08T02:03:19;23.83;;;9.70;;
47635;SDS011;33364;50.766;15.338;2023-02-08T02:05:48;26.90;;;11.27;;
47635;SDS011;33364;50.766;15.338;2023-02-08T02:08:16;15.55;;;8.00;;
47635;SDS011;33364;50.766;15.338;2023-02-08T02:10:43;20.08;;;9.13;;
47635;SDS011;33364;50.766;15.338;2023-02-08T02:13:13;32.70;;;11.95;;
47635;SDS011;33364;50.766;15.338;2023-02-08T02:15:43;31.92;;;12.50;;
47635;SDS011;33364;50.766;15.338;2023-02-08T02:18:10;28.30;;;11.73;;
47635;SDS011;33364;50.766;15.338;2023-02-08T02:26:21;26.37;;;10.43;;
47635;SDS011;33364;50.766;15.338;2023-02-08T02:32:10;27.08;;;10.85;;
47635;SDS011;33364;50.766;15.338;2023-02-08T02:43:06;33.67;;;10.90;;
47635;SDS011;33364;50.766;15.338;2023-02-08T02:54:19;19.67;;;8.68;;
47635;SDS011;33364;50.766;15.338;2023-02-08T02:56:51;18.23;;;8.63;;
47635;SDS011;33364;50.766;15.338;2023-02-08T02:59:21;28.08;;;9.15;;
47635;SDS011;33364;50.766;15.338;2023-02-08T03:01:47;21.48;;;9.52;;
47635;SDS011;33364;50.766;15.338;2023-02-08T03:04:18;24.23;;;9.10;;
47635;SDS011;33364;50.766;15.338;2023-02-08T03:07:12;17.92;;;8.35;;
47635;SDS011;33364;50.766;15.338;2023-02-08T03:15:37;20.17;;;8.45;;
47635;SDS011;33364;50.766;15.338;2023-02-08T03:21:04;24.48;;;10.00;;
47635;SDS011;33364;50.766;15.338;2023-02-08T03:23:42;24.77;;;9.52;;
47635;SDS011;33364;50.766;15.338;2023-02-08T03:29:07;22.27;;;9.38;;
47635;SDS011;33364;50.766;15.338;2023-02-08T03:31:42;20.20;;;7.88;;
47635;SDS011;33364;50.766;15.338;2023-02-08T03:34:20;23.50;;;9.25;;
47635;SDS011;33364;50.766;15.338;2023-02-08T03:36:55;24.23;;;9.63;;
47635;SDS011;33364;50.766;15.338;2023-02-08T03:39:28;25.48;;;10.15;;
47635;SDS011;33364;50.766;15.338;2023-02-08T03:41:59;22.27;;;9.73;;
47635;SDS011;33364;50.766;15.338;2023-02-08T03:44:40;20.20;;;8.32;;
47635;SDS011;33364;50.766;15.338;2023-02-08T03:47:12;18.10;;;7.72;;
47635;SDS011;33364;50.766;15.338;2023-02-08T03:49:39;27.15;;;9.95;;
47635;SDS011;33364;50.766;15.338;2023-02-08T03:52:08;20.08;;;9.13;;
47635;SDS011;33364;50.766;15.338;2023-02-08T03:54:37;22.38;;;8.45;;
47635;SDS011;33364;50.766;15.338;2023-02-08T03:59:37;23.52;;;9.85;;
47635;SDS011;33364;50.766;15.338;2023-02-08T04:02:06;19.38;;;8.35;;
47635;SDS011;33364;50.766;15.338;2023-02-08T04:04:36;16.15;;;7.65;;
47635;SDS011;33364;50.766;15.338;2023-02-08T04:07:04;24.20;;;9.15;;
47635;SDS011;33364;50.766;15.338;2023-02-08T04:09:30;19.35;;;8.73;;
47635;SDS011;33364;50.766;15.338;2023-02-08T04:11:56;24.48;;;11.02;;
47635;SDS011;33364;50.766;15.338;2023-02-08T04:14:22;18.15;;;9.40;;
47635;SDS011;33364;50.766;15.338;2023-02-08T04:16:48;20.35;;;8.85;;
47635;SDS011;33364;50.766;15.338;2023-02-08T04:19:14;21.02;;;9.32;;
47635;SDS011;33364;50.766;15.338;2023-02-08T04:21:40;20.60;;;9.32;;
47635;SDS011;33364;50.766;15.338;2023-02-08T04:24:06;18.45;;;8.57;;
47635;SDS011;33364;50.766;15.338;2023-02-08T04:26:32;22.92;;;10.82;;
47635;SDS011;33364;50.766;15.338;2023-02-08T04:28:57;23.83;;;9.60;;
47635;SDS011;33364;50.766;15.338;2023-02-08T04:31:23;24.13;;;10.60;;
47635;SDS011;33364;50.766;15.338;2023-02-08T04:33:49;17.90;;;9.00;;
47635;SDS011;33364;50.766;15.338;2023-02-08T04:36:15;24.02;;;11.93;;
47635;SDS011;33364;50.766;15.338;2023-02-08T04:38:40;27.33;;;10.18;;
47635;SDS011;33364;50.766;15.338;2023-02-08T04:41:06;24.05;;;9.80;;
47635;SDS011;33364;50.766;15.338;2023-02-08T04:43:31;23.70;;;9.75;;
47635;SDS011;33364;50.766;15.338;2023-02-08T04:45:57;26.38;;;9.05;;
47635;SDS011;33364;50.766;15.338;2023-02-08T04:48:23;20.23;;;8.23;;
47635;SDS011;33364;50.766;15.338;2023-02-08T04:50:49;26.65;;;9.70;;
47635;SDS011;33364;50.766;15.338;2023-02-08T04:53:15;20.35;;;9.85;;
47635;SDS011;33364;50.766;15.338;2023-02-08T04:55:41;22.83;;;8.80;;
47635;SDS011;33364;50.766;15.338;2023-02-08T04:58:06;26.73;;;10.75;;
47635;SDS011;33364;50.766;15.338;2023-02-08T05:00:32;25.75;;;9.27;;
47635;SDS011;33364;50.766;15.338;2023-02-08T05:02:58;24.52;;;10.02;;
47635;SDS011;33364;50.766;15.338;2023-02-08T05:05:24;27.60;;;11.48;;
47635;SDS011;33364;50.766;15.338;2023-02-08T05:07:50;23.73;;;9.95;;
47635;SDS011;33364;50.766;15.338;2023-02-08T05:10:16;22.48;;;9.00;;
47635;SDS011;33364;50.766;15.338;2023-02-08T05:12:42;22.60;;;10.57;;
47635;SDS011;33364;50.766;15.338;2023-02-08T05:15:08;23.98;;;8.82;;
47635;SDS011;33364;50.766;15.338;2023-02-08T05:17:34;24.77;;;10.68;;
47635;SDS011;33364;50.766;15.338;2023-02-08T05:20:01;24.23;;;9.38;;
47635;SDS011;33364;50.766;15.338;2023-02-08T05:22:28;21.48;;;9.85;;
47635;SDS011;33364;50.766;15.338;2023-02-08T05:24:54;21.65;;;10.85;;
47635;SDS011;33364;50.766;15.338;2023-02-08T05:27:19;21.73;;;10.57;;
47635;SDS011;33364;50.766;15.338;2023-02-08T05:29:45;24.20;;;10.68;;
47635;SDS011;33364;50.766;15.338;2023-02-08T05:32:11;24.63;;;12.02;;
47635;SDS011;33364;50.766;15.338;2023-02-08T05:34:37;23.95;;;10.43;;
47635;SDS011;33364;50.766;15.338;2023-02-08T05:37:03;25.25;;;9.93;;
47635;SDS011;33364;50.766;15.338;2023-02-08T05:39:29;25.25;;;10.82;;
47635;SDS011;33364;50.766;15.338;2023-02-08T05:41:55;30.48;;;12.60;;
47635;SDS011;33364;50.766;15.338;2023-02-08T05:44:21;25.02;;;10.52;;
47635;SDS011;33364;50.766;15.338;2023-02-08T05:46:46;26.67;;;10.20;;
47635;SDS011;33364;50.766;15.338;2023-02-08T05:49:12;27.55;;;10.60;;
47635;SDS011;33364;50.766;15.338;2023-02-08T05:51:38;26.67;;;10.40;;
47635;SDS011;33364;50.766;15.338;2023-02-08T05:54:04;26.42;;;11.15;;
47635;SDS011;33364;50.766;15.338;2023-02-08T05:56:30;24.38;;;10.77;;
47635;SDS011;33364;50.766;15.338;2023-02-08T05:58:58;20.63;;;9.02;;
47635;SDS011;33364;50.766;15.338;2023-02-08T06:01:25;26.38;;;11.10;;
47635;SDS011;33364;50.766;15.338;2023-02-08T06:03:51;28.45;;;11.30;;
47635;SDS011;33364;50.766;15.338;2023-02-08T06:06:18;30.48;;;12.30;;
47635;SDS011;33364;50.766;15.338;2023-02-08T06:08:44;25.90;;;10.90;;
47635;SDS011;33364;50.766;15.338;2023-02-08T06:11:10;26.58;;;10.38;;
47635;SDS011;33364;50.766;15.338;2023-02-08T06:13:36;26.65;;;10.18;;
47635;SDS011;33364;50.766;15.338;2023-02-08T06:16:03;23.88;;;10.30;;
47635;SDS011;33364;50.766;15.338;2023-02-08T06:18:30;27.13;;;10.73;;
47635;SDS011;33364;50.766;15.338;2023-02-08T06:20:56;25.38;;;9.65;;
47635;SDS011;33364;50.766;15.338;2023-02-08T06:23:22;28.40;;;11.73;;
47635;SDS011;33364;50.766;15.338;2023-02-08T06:25:48;23.10;;;10.32;;
47635;SDS011;33364;50.766;15.338;2023-02-08T06:28:15;26.77;;;11.32;;
47635;SDS011;33364;50.766;15.338;2023-02-08T06:30:40;20.75;;;9.63;;
47635;SDS011;33364;50.766;15.338;2023-02-08T06:33:06;23.52;;;9.98;;
47635;SDS011;33364;50.766;15.338;2023-02-08T06:35:32;19.13;;;8.52;;
47635;SDS011;33364;50.766;15.338;2023-02-08T06:37:58;23.83;;;10.05;;
47635;SDS011;33364;50.766;15.338;2023-02-08T06:40:24;20.70;;;8.23;;
47635;SDS011;33364;50.766;15.338;2023-02-08T06:42:50;25.55;;;9.90;;
47635;SDS011;33364;50.766;15.338;2023-02-08T06:45:16;23.23;;;10.00;;
47635;SDS011;33364;50.766;15.338;2023-02-08T06:47:42;29.92;;;12.75;;
47635;SDS011;33364;50.766;15.338;2023-02-08T06:50:08;30.45;;;12.05;;
47635;SDS011;33364;50.766;15.338;2023-02-08T06:52:35;24.08;;;11.43;;
47635;SDS011;33364;50.766;15.338;2023-02-08T06:55:01;20.88;;;10.18;;
47635;SDS011;33364;50.766;15.338;2023-02-08T06:57:26;22.52;;;10.27;;
47635;SDS011;33364;50.766;15.338;2023-02-08T06:59:52;28.95;;;11.32;;
47635;SDS011;33364;50.766;15.338;2023-02-08T07:02:19;23.77;;;11.45;;
47635;SDS011;33364;50.766;15.338;2023-02-08T07:04:45;25.25;;;10.50;;
47635;SDS011;33364;50.766;15.338;2023-02-08T07:07:12;23.48;;;11.60;;
47635;SDS011;33364;50.766;15.338;2023-02-08T07:09:39;26.15;;;11.60;;
47635;SDS011;33364;50.766;15.338;2023-02-08T07:12:05;29.25;;;12.32;;
47635;SDS011;33364;50.766;15.338;2023-02-08T07:14:31;29.90;;;12.45;;
47635;SDS011;33364;50.766;15.338;2023-02-08T07:16:58;30.95;;;14.25;;
47635;SDS011;33364;50.766;15.338;2023-02-08T07:19:24;32.63;;;13.30;;
47635;SDS011;33364;50.766;15.338;2023-02-08T07:21:51;29.85;;;12.60;;
47635;SDS011;33364;50.766;15.338;2023-02-08T07:24:16;35.03;;;14.77;;
47635;SDS011;33364;50.766;15.338;2023-02-08T07:26:42;26.35;;;12.77;;
47635;SDS011;33364;50.766;15.338;2023-02-08T07:29:07;32.60;;;14.15;;
47635;SDS011;33364;50.766;15.338;2023-02-08T07:31:33;196.50;;;58.08;;
47635;SDS011;33364;50.766;15.338;2023-02-08T07:33:59;156.63;;;48.35;;
47635;SDS011;33364;50.766;15.338;2023-02-08T07:36:25;48.40;;;18.90;;
47635;SDS011;33364;50.766;15.338;2023-02-08T07:38:50;39.22;;;16.30;;
47635;SDS011;33364;50.766;15.338;2023-02-08T07:41:16;43.05;;;17.08;;
47635;SDS011;33364;50.766;15.338;2023-02-08T07:43:42;37.88;;;15.70;;
47635;SDS011;33364;50.766;15.338;2023-02-08T07:46:11;44.28;;;17.77;;
47635;SDS011;33364;50.766;15.338;2023-02-08T07:48:38;41.55;;;16.35;;
47635;SDS011;33364;50.766;15.338;2023-02-08T07:51:04;36.42;;;16.23;;
47635;SDS011;33364;50.766;15.338;2023-02-08T07:53:30;59.70;;;20.83;;
47635;SDS011;33364;50.766;15.338;2023-02-08T07:55:57;45.28;;;17.45;;
47635;SDS011;33364;50.766;15.338;2023-02-08T07:58:22;38.00;;;14.88;;
47635;SDS011;33364;50.766;15.338;2023-02-08T08:00:49;40.70;;;15.98;;
47635;SDS011;33364;50.766;15.338;2023-02-08T08:03:14;39.80;;;17.55;;
47635;SDS011;33364;50.766;15.338;2023-02-08T08:05:40;35.92;;;16.10;;
47635;SDS011;33364;50.766;15.338;2023-02-08T08:08:08;33.90;;;15.43;;
47635;SDS011;33364;50.766;15.338;2023-02-08T08:10:34;37.70;;;15.93;;
47635;SDS011;33364;50.766;15.338;2023-02-08T08:13:00;37.15;;;16.67;;
47635;SDS011;33364;50.766;15.338;2023-02-08T08:15:27;36.10;;;15.05;;
47635;SDS011;33364;50.766;15.338;2023-02-08T08:17:53;43.08;;;19.13;;
47635;SDS011;33364;50.766;15.338;2023-02-08T08:20:19;32.95;;;15.38;;
47635;SDS011;33364;50.766;15.338;2023-02-08T08:22:45;40.85;;;15.05;;
47635;SDS011;33364;50.766;15.338;2023-02-08T08:25:12;37.55;;;15.02;;
47635;SDS011;33364;50.766;15.338;2023-02-08T08:27:38;33.88;;;13.90;;
47635;SDS011;33364;50.766;15.338;2023-02-08T08:30:08;34.25;;;15.48;;
47635;SDS011;33364;50.766;15.338;2023-02-08T08:32:36;30.70;;;13.35;;
47635;SDS011;33364;50.766;15.338;2023-02-08T08:35:03;32.97;;;14.68;;
47635;SDS011;33364;50.766;15.338;2023-02-08T08:37:29;30.50;;;14.13;;
47635;SDS011;33364;50.766;15.338;2023-02-08T08:39:55;32.63;;;15.02;;
47635;SDS011;33364;50.766;15.338;2023-02-08T08:42:20;31.48;;;13.65;;
47635;SDS011;33364;50.766;15.338;2023-02-08T08:44:46;31.85;;;13.25;;
47635;SDS011;33364;50.766;15.338;2023-02-08T08:47:12;29.80;;;14.48;;
47635;SDS011;33364;50.766;15.338;2023-02-08T08:49:38;30.90;;;13.38;;
47635;SDS011;33364;50.766;15.338;2023-02-08T08:52:04;31.52;;;14.43;;
47635;SDS011;33364;50.766;15.338;2023-02-08T08:54:32;32.10;;;14.65;;
47635;SDS011;33364;50.766;15.338;2023-02-08T08:56:58;29.80;;;13.32;;
47635;SDS011;33364;50.766;15.338;2023-02-08T08:59:25;26.77;;;13.25;;
47635;SDS011;33364;50.766;15.338;2023-02-08T09:01:50;31.10;;;12.93;;
47635;SDS011;33364;50.766;15.338;2023-02-08T09:04:16;31.63;;;13.55;;
47635;SDS011;33364;50.766;15.338;2023-02-08T09:06:42;22.70;;;12.50;;
47635;SDS011;33364;50.766;15.338;2023-02-08T09:09:08;21.83;;;11.52;;
47635;SDS011;33364;50.766;15.338;2023-02-08T09:11:33;24.08;;;12.32;;
47635;SDS011;33364;50.766;15.338;2023-02-08T09:14:03;24.20;;;11.55;;
47635;SDS011;33364;50.766;15.338;2023-02-08T09:16:29;25.55;;;12.65;;
47635;SDS011;33364;50.766;15.338;2023-02-08T09:18:55;22.48;;;12.25;;
47635;SDS011;33364;50.766;15.338;2023-02-08T09:21:21;23.95;;;12.00;;
47635;SDS011;33364;50.766;15.338;2023-02-08T09:23:49;19.00;;;9.40;;
47635;SDS011;33364;50.766;15.338;2023-02-08T09:26:16;20.48;;;10.10;;
47635;SDS011;33364;50.766;15.338;2023-02-08T09:28:43;18.88;;;10.52;;
47635;SDS011;33364;50.766;15.338;2023-02-08T09:31:20;19.00;;;9.88;;
47635;SDS011;33364;50.766;15.338;2023-02-08T09:33:49;19.75;;;8.95;;
47635;SDS011;33364;50.766;15.338;2023-02-08T09:36:15;17.95;;;8.90;;
47635;SDS011;33364;50.766;15.338;2023-02-08T09:38:42;12.98;;;6.90;;
47635;SDS011;33364;50.766;15.338;2023-02-08T09:46:47;9.85;;;5.30;;
47635;SDS011;33364;50.766;15.338;2023-02-08T09:49:23;8.43;;;4.22;;
47635;SDS011;33364;50.766;15.338;2023-02-08T09:51:59;9.55;;;4.18;;
47635;SDS011;33364;50.766;15.338;2023-02-08T09:54:32;15.70;;;8.57;;
47635;SDS011;33364;50.766;15.338;2023-02-08T09:57:02;11.27;;;5.82;;
47635;SDS011;33364;50.766;15.338;2023-02-08T09:59:33;10.02;;;4.40;;
47635;SDS011;33364;50.766;15.338;2023-02-08T10:02:10;8.10;;;4.30;;
47635;SDS011;33364;50.766;15.338;2023-02-08T10:07:31;7.80;;;4.63;;
47635;SDS011;33364;50.766;15.338;2023-02-08T10:10:00;8.85;;;4.72;;
47635;SDS011;33364;50.766;15.338;2023-02-08T10:12:33;7.93;;;4.15;;
47635;SDS011;33364;50.766;15.338;2023-02-08T10:16:07;6.68;;;3.63;;
47635;SDS011;33364;50.766;15.338;2023-02-08T10:23:59;8.40;;;4.32;;
47635;SDS011;33364;50.766;15.338;2023-02-08T10:26:46;7.72;;;3.38;;
47635;SDS011;33364;50.766;15.338;2023-02-08T10:32:05;8.63;;;4.40;;
47635;SDS011;33364;50.766;15.338;2023-02-08T10:35:04;6.43;;;4.53;;
47635;SDS011;33364;50.766;15.338;2023-02-08T10:37:35;9.82;;;3.75;;
47635;SDS011;33364;50.766;15.338;2023-02-08T10:42:59;10.00;;;5.75;;
47635;SDS011;33364;50.766;15.338;2023-02-08T10:48:00;8.00;;;4.00;;
47635;SDS011;33364;50.766;15.338;2023-02-08T10:50:36;8.13;;;4.95;;
47635;SDS011;33364;50.766;15.338;2023-02-08T10:53:05;7.35;;;3.65;;
47635;SDS011;33364;50.766;15.338;2023-02-08T10:55:37;7.15;;;3.75;;
47635;SDS011;33364;50.766;15.338;2023-02-08T10:58:06;5.53;;;3.53;;
47635;SDS011;33364;50.766;15.338;2023-02-08T11:00:38;6.63;;;3.70;;
47635;SDS011;33364;50.766;15.338;2023-02-08T11:03:20;8.38;;;3.83;;
47635;SDS011;33364;50.766;15.338;2023-02-08T11:05:47;7.55;;;4.07;;
47635;SDS011;33364;50.766;15.338;2023-02-08T11:13:21;8.00;;;4.00;;
47635;SDS011;33364;50.766;15.338;2023-02-08T11:15:57;9.55;;;4.50;;
47635;SDS011;33364;50.766;15.338;2023-02-08T11:18:36;10.07;;;5.07;;
47635;SDS011;33364;50.766;15.338;2023-02-08T11:21:06;10.13;;;5.00;;
47635;SDS011;33364;50.766;15.338;2023-02-08T11:23:36;7.95;;;3.65;;
47635;SDS011;33364;50.766;15.338;2023-02-08T11:26:16;9.63;;;4.18;;
47635;SDS011;33364;50.766;15.338;2023-02-08T11:34:38;7.90;;;3.80;;
47635;SDS011;33364;50.766;15.338;2023-02-08T11:37:14;8.10;;;3.47;;
47635;SDS011;33364;50.766;15.338;2023-02-08T11:39:44;5.68;;;3.42;;
47635;SDS011;33364;50.766;15.338;2023-02-08T11:42:18;8.23;;;3.50;;
47635;SDS011;33364;50.766;15.338;2023-02-08T11:44:46;9.95;;;4.18;;
47635;SDS011;33364;50.766;15.338;2023-02-08T11:47:17;11.43;;;4.10;;
47635;SDS011;33364;50.766;15.338;2023-02-08T11:49:53;13.23;;;5.85;;
47635;SDS011;33364;50.766;15.338;2023-02-08T11:52:22;10.20;;;4.72;;
47635;SDS011;33364;50.766;15.338;2023-02-08T11:54:52;9.82;;;4.47;;
47635;SDS011;33364;50.766;15.338;2023-02-08T11:57:23;9.10;;;4.28;;
47635;SDS011;33364;50.766;15.338;2023-02-08T11:59:50;7.97;;;3.97;;
47635;SDS011;33364;50.766;15.338;2023-02-08T12:02:38;8.63;;;4.18;;
47635;SDS011;33364;50.766;15.338;2023-02-08T12:05:09;9.50;;;4.55;;
47635;SDS011;33364;50.766;15.338;2023-02-08T12:07:52;18.10;;;12.60;;
47635;SDS011;33364;50.766;15.338;2023-02-08T12:21:15;6.00;;;3.63;;
47635;SDS011;33364;50.766;15.338;2023-02-08T12:29:21;12.43;;;6.93;;
47635;SDS011;33364;50.766;15.338;2023-02-08T12:32:13;8.90;;;4.50;;
47635;SDS011;33364;50.766;15.338;2023-02-08T12:49:09;10.13;;;4.93;;
47635;SDS011;33364;50.766;15.338;2023-02-08T12:51:57;7.50;;;4.07;;
47635;SDS011;33364;50.766;15.338;2023-02-08T12:54:32;8.40;;;4.22;;
47635;SDS011;33364;50.766;15.338;2023-02-08T12:57:05;10.02;;;5.55;;
47635;SDS011;33364;50.766;15.338;2023-02-08T12:59:38;10.55;;;5.40;;
47635;SDS011;33364;50.766;15.338;2023-02-08T13:02:22;8.63;;;4.27;;
47635;SDS011;33364;50.766;15.338;2023-02-08T13:04:54;8.98;;;4.38;;
47635;SDS011;33364;50.766;15.338;2023-02-08T13:12:31;8.90;;;5.00;;
47635;SDS011;33364;50.766;15.338;2023-02-08T13:15:21;8.43;;;4.55;;
47635;SDS011;33364;50.766;15.338;2023-02-08T13:17:55;10.02;;;5.00;;
47635;SDS011;33364;50.766;15.338;2023-02-08T13:25:58;12.82;;;6.00;;
47635;SDS011;33364;50.766;15.338;2023-02-08T13:28:26;9.00;;;4.53;;
47635;SDS011;33364;50.766;15.338;2023-02-08T13:31:03;17.08;;;6.20;;
47635;SDS011;33364;50.766;15.338;2023-02-08T13:33:35;9.52;;;5.43;;
47635;SDS011;33364;50.766;15.338;2023-02-08T13:36:22;8.98;;;4.78;;
47635;SDS011;33364;50.766;15.338;2023-02-08T13:38:48;10.23;;;4.63;;
47635;SDS011;33364;50.766;15.338;2023-02-08T13:41:16;7.70;;;4.90;;
47635;SDS011;33364;50.766;15.338;2023-02-08T13:43:48;8.77;;;5.00;;
47635;SDS011;33364;50.766;15.338;2023-02-08T13:46:18;8.82;;;4.43;;
47635;SDS011;33364;50.766;15.338;2023-02-08T14:04:37;14.93;;;8.38;;
47635;SDS011;33364;50.766;15.338;2023-02-08T14:07:20;15.77;;;7.72;;
47635;SDS011;33364;50.766;15.338;2023-02-08T14:12:36;11.82;;;5.95;;
47635;SDS011;33364;50.766;15.338;2023-02-08T14:17:43;11.80;;;5.22;;
47635;SDS011;33364;50.766;15.338;2023-02-08T14:22:59;11.27;;;5.63;;
47635;SDS011;33364;50.766;15.338;2023-02-08T14:25:43;15.32;;;7.05;;
47635;SDS011;33364;50.766;15.338;2023-02-08T14:30:58;13.40;;;5.68;;
47635;SDS011;33364;50.766;15.338;2023-02-08T14:33:28;12.23;;;5.28;;
47635;SDS011;33364;50.766;15.338;2023-02-08T14:35:59;14.10;;;6.35;;
47635;SDS011;33364;50.766;15.338;2023-02-08T14:49:48;26.92;;;14.45;;
47635;SDS011;33364;50.766;15.338;2023-02-08T14:52:22;13.38;;;6.88;;
47635;SDS011;33364;50.766;15.338;2023-02-08T14:55:33;12.90;;;6.70;;
47635;SDS011;33364;50.766;15.338;2023-02-08T14:57:42;12.80;;;5.70;;
47635;SDS011;33364;50.766;15.338;2023-02-08T15:03:04;13.02;;;6.63;;
47635;SDS011;33364;50.766;15.338;2023-02-08T15:05:39;13.73;;;6.13;;
47635;SDS011;33364;50.766;15.338;2023-02-08T15:08:10;13.77;;;6.65;;
47635;SDS011;33364;50.766;15.338;2023-02-08T15:10:39;32.72;;;19.17;;
47635;SDS011;33364;50.766;15.338;2023-02-08T15:13:11;16.20;;;9.88;;
47635;SDS011;33364;50.766;15.338;2023-02-08T15:18:15;10.85;;;6.07;;
47635;SDS011;33364;50.766;15.338;2023-02-08T15:21:00;31.45;;;18.25;;
47635;SDS011;33364;50.766;15.338;2023-02-08T15:23:28;12.68;;;6.35;;
47635;SDS011;33364;50.766;15.338;2023-02-08T15:26:02;19.30;;;10.40;;
47635;SDS011;33364;50.766;15.338;2023-02-08T15:28:30;12.80;;;7.30;;
47635;SDS011;33364;50.766;15.338;2023-02-08T15:31:02;14.05;;;7.45;;
47635;SDS011;33364;50.766;15.338;2023-02-08T15:33:39;13.70;;;7.18;;
47635;SDS011;33364;50.766;15.338;2023-02-08T15:36:13;24.60;;;16.38;;
47635;SDS011;33364;50.766;15.338;2023-02-08T15:38:42;12.07;;;6.25;;
47635;SDS011;33364;50.766;15.338;2023-02-08T15:41:15;13.43;;;6.38;;
47635;SDS011;33364;50.766;15.338;2023-02-08T15:43:49;13.63;;;6.50;;
47635;SDS011;33364;50.766;15.338;2023-02-08T15:46:16;17.40;;;8.40;;
47635;SDS011;33364;50.766;15.338;2023-02-08T15:48:45;15.80;;;9.55;;
47635;SDS011;33364;50.766;15.338;2023-02-08T15:51:13;13.30;;;7.10;;
47635;SDS011;33364;50.766;15.338;2023-02-08T15:53:42;16.95;;;7.55;;
47635;SDS011;33364;50.766;15.338;2023-02-08T15:56:10;16.67;;;7.35;;
47635;SDS011;33364;50.766;15.338;2023-02-08T15:58:43;13.82;;;6.90;;
47635;SDS011;33364;50.766;15.338;2023-02-08T16:01:16;11.10;;;5.93;;
47635;SDS011;33364;50.766;15.338;2023-02-08T16:03:56;14.07;;;7.05;;
47635;SDS011;33364;50.766;15.338;2023-02-08T16:06:28;13.27;;;7.15;;
47635;SDS011;33364;50.766;15.338;2023-02-08T16:09:01;12.50;;;6.75;;
47635;SDS011;33364;50.766;15.338;2023-02-08T16:11:31;14.43;;;7.10;;
47635;SDS011;33364;50.766;15.338;2023-02-08T16:14:00;12.88;;;6.45;;
47635;SDS011;33364;50.766;15.338;2023-02-08T16:19:03;11.60;;;6.88;;
47635;SDS011;33364;50.766;15.338;2023-02-08T16:21:33;16.85;;;8.52;;
47635;SDS011;33364;50.766;15.338;2023-02-08T16:24:04;17.05;;;6.93;;
47635;SDS011;33364;50.766;15.338;2023-02-08T16:32:23;14.50;;;5.93;;
47635;SDS011;33364;50.766;15.338;2023-02-08T16:34:52;14.45;;;6.78;;
47635;SDS011;33364;50.766;15.338;2023-02-08T16:39:56;17.13;;;9.20;;
47635;SDS011;33364;50.766;15.338;2023-02-08T16:42:29;18.92;;;9.48;;
47635;SDS011;33364;50.766;15.338;2023-02-08T16:47:38;30.05;;;15.00;;
47635;SDS011;33364;50.766;15.338;2023-02-08T16:50:15;21.92;;;12.13;;
47635;SDS011;33364;50.766;15.338;2023-02-08T16:52:52;21.13;;;10.75;;
47635;SDS011;33364;50.766;15.338;2023-02-08T16:55:21;20.13;;;10.90;;
47635;SDS011;33364;50.766;15.338;2023-02-08T16:57:51;23.17;;;12.45;;
47635;SDS011;33364;50.766;15.338;2023-02-08T17:00:24;25.42;;;13.15;;
47635;SDS011;33364;50.766;15.338;2023-02-08T17:02:52;22.05;;;12.88;;
47635;SDS011;33364;50.766;15.338;2023-02-08T17:05:19;41.80;;;21.30;;
47635;SDS011;33364;50.766;15.338;2023-02-08T17:07:46;22.88;;;12.20;;
47635;SDS011;33364;50.766;15.338;2023-02-08T17:10:15;18.52;;;10.52;;
47635;SDS011;33364;50.766;15.338;2023-02-08T17:12:52;71.43;;;28.05;;
47635;SDS011;33364;50.766;15.338;2023-02-08T17:15:18;30.02;;;15.38;;
47635;SDS011;33364;50.766;15.338;2023-02-08T17:17:48;23.90;;;11.55;;
47635;SDS011;33364;50.766;15.338;2023-02-08T17:20:15;32.72;;;15.55;;
47635;SDS011;33364;50.766;15.338;2023-02-08T17:22:49;25.55;;;13.60;;
47635;SDS011;33364;50.766;15.338;2023-02-08T17:25:17;30.42;;;14.80;;